Palm Harbor, FL

2:56 AM EST on March 06, 2015 (GMT -0500)
Westlake Village | Change Station
CLOSE
Current Station
Personal Weather Station
Location: Palm Harbor, FL
Elevation: 82 ft
Nearby Weather Stations

Elev 82 ft 28.09 °N, 82.75 °W | Updated 19 hours ago

Mostly Cloudy
Mostly Cloudy
66 °F
Feels Like 66 °F
N
7
Wind Variable Wind from NW
Gusts mph

Today
High -- | Low -- °F
--% Chance of Precip.
Yesterday
High -- | Low -- °F
Precip. -- in
6:50 AM 6:34 PM
Full, 100% visible
Pressure 30.13 in
Visibility 0.5 miles
Clouds
Dew Point 65 °F
Humidity 95%
Rainfall in
Snow Depth Not available.
UV 16.0 out of 12
Pollen 9.40 out of 12
Air Quality Not available.
Flu Activity Not available.
METAR KPIE 060653Z AUTO 26003KT 1/2SM R18L/2800V4000FT FG VV002 20/20 A3013 RMK AO2 SLP202 T02000200

More Conditions Fewer Conditions

Pressure 30.13 in
Visibility 0.5 miles
Clouds
Dew Point 65 °F
Humidity 95%
Rainfall in
Snow Depth Not available.
UV 16.0 out of 12
Pollen 9.40 out of 12
Air Quality Not available.
Flu Activity Not available.
METAR KPIE 060653Z AUTO 26003KT 1/2SM R18L/2800V4000FT FG VV002 20/20 A3013 RMK AO2 SLP202 T02000200

More Conditions Fewer Conditions

10-Day Weather Forecast

Almanac

Astronomy

Mar. 06, 2015 Rise Set
Actual Time
Civil Twilight
Nautical Twilight
Astronomical Twilight
Moon
Length of Visible Light
Length of Day
Tomorrow will be .
, % of the Moon is Illuminated

Today's Extremes

State Highs State Lows

Community

WunderPhotos

Upload Photos

1,803,199 photos uploaded!

WunderBlogs® & News

Nearby

Air Quality

  Air Quality AQ Index Pollutant
Not available.

Snow Depth

Station Depth Elevation

Earthquake Activity

City Distance Mag. Time & Date
Minimum magnitude displayed is 2.5.

Coastal Water Temperatures

Place Temperature

Nearby Weather Stations